createdAt,value
2022-08-18T00:01:08.197Z,57.38
2022-08-18T00:03:55.810Z,57.41
2022-08-18T00:06:21.015Z,55.51
2022-08-18T00:08:47.391Z,54.82
2022-08-18T00:11:14.801Z,56.37
2022-08-18T00:13:41.333Z,56.47
2022-08-18T00:16:07.819Z,56.96
2022-08-18T00:18:34.287Z,56.95
2022-08-18T00:21:02.270Z,57.13
2022-08-18T00:23:32.644Z,56.84
2022-08-18T00:26:00.268Z,57.20
2022-08-18T00:28:27.136Z,57.23
2022-08-18T00:30:54.275Z,57.21
2022-08-18T00:33:21.423Z,57.75
2022-08-18T00:35:48.263Z,57.71
2022-08-18T00:38:24.600Z,57.99
2022-08-18T00:40:53.347Z,57.89
2022-08-18T00:43:24.934Z,58.16
2022-08-18T00:45:51.468Z,58.71
2022-08-18T00:48:18.837Z,58.54
2022-08-18T00:50:58.028Z,58.42
2022-08-18T00:53:35.578Z,58.72
2022-08-18T00:56:10.430Z,58.93
2022-08-18T00:58:43.248Z,57.39
2022-08-18T01:01:12.229Z,58.65
2022-08-18T01:03:40.304Z,59.03
2022-08-18T01:06:15.546Z,58.95
2022-08-18T01:08:42.747Z,58.91
2022-08-18T01:11:10.531Z,58.90
2022-08-18T01:13:41.594Z,59.27
2022-08-18T01:16:27.216Z,58.98
2022-08-18T01:19:12.877Z,58.88
2022-08-18T01:21:51.926Z,58.39
2022-08-18T01:24:22.102Z,58.64
2022-08-18T01:26:52.054Z,59.24
2022-08-18T01:29:19.731Z,58.91
2022-08-18T01:31:56.022Z,58.59
2022-08-18T01:34:27.467Z,58.78
2022-08-18T01:36:54.978Z,59.03
2022-08-18T01:41:24.961Z,58.64
2022-08-18T01:42:10.037Z,58.44
2022-08-18T01:44:36.661Z,58.67
2022-08-18T01:47:03.880Z,58.45
2022-08-18T01:49:30.417Z,58.43
2022-08-18T01:51:56.859Z,58.14
2022-08-18T01:54:23.371Z,58.30
2022-08-18T01:56:50.243Z,58.32
2022-08-18T01:59:16.794Z,58.42
2022-08-18T02:01:50.484Z,58.41
2022-08-18T02:04:35.552Z,58.39
2022-08-18T02:07:06.698Z,58.44
2022-08-18T02:09:33.678Z,58.85
2022-08-18T02:12:01.298Z,58.90
2022-08-18T02:14:27.814Z,58.84
2022-08-18T02:17:02.122Z,58.85
2022-08-18T02:19:38.437Z,58.60
2022-08-18T02:22:06.630Z,58.84
2022-08-18T02:24:33.100Z,59.09
2022-08-18T02:26:59.716Z,58.84
2022-08-18T02:29:26.210Z,58.97
2022-08-18T02:31:52.938Z,59.18
2022-08-18T02:34:19.359Z,59.23
2022-08-18T02:36:46.045Z,59.48
2022-08-18T02:39:12.827Z,59.62
2022-08-18T02:41:39.479Z,59.82
2022-08-18T02:44:09.403Z,59.81
2022-08-18T02:46:37.141Z,60.17
2022-08-18T02:49:05.713Z,60.35
2022-08-18T02:51:32.234Z,60.63
2022-08-18T02:53:59.596Z,60.72
2022-08-18T02:56:40.437Z,60.57
2022-08-18T02:59:11.917Z,60.44
2022-08-18T03:01:41.166Z,60.58
2022-08-18T03:04:10.287Z,60.64
2022-08-18T03:06:38.719Z,61.01
2022-08-18T03:09:06.984Z,61.16
2022-08-18T03:11:33.538Z,61.50
2022-08-18T03:14:03.158Z,61.67
2022-08-18T03:16:32.836Z,61.47
2022-08-18T03:19:01.266Z,61.46
2022-08-18T03:21:29.947Z,61.67
2022-08-18T03:24:00.790Z,61.78
2022-08-18T03:26:29.705Z,62.02
2022-08-18T03:28:57.086Z,61.82
2022-08-18T03:31:27.938Z,61.96
2022-08-18T03:33:57.841Z,62.29
2022-08-18T03:36:29.597Z,62.28
2022-08-18T03:38:57.012Z,62.19
2022-08-18T03:41:43.979Z,62.21
2022-08-18T03:44:14.890Z,62.39
2022-08-18T03:46:43.366Z,62.45
2022-08-18T03:49:10.294Z,62.60
2022-08-18T03:51:37.573Z,62.66
2022-08-18T03:54:05.892Z,62.34
2022-08-18T03:56:35.212Z,62.21
2022-08-18T03:59:08.256Z,62.30
2022-08-18T04:01:39.524Z,62.19
2022-08-18T04:04:08.844Z,62.31
2022-08-18T04:06:40.285Z,61.86
2022-08-18T04:09:10.758Z,62.00
2022-08-18T04:11:38.787Z,62.31
2022-08-18T04:14:06.124Z,62.13
2022-08-18T04:16:34.995Z,61.92
2022-08-18T04:19:04.529Z,61.83
2022-08-18T04:21:39.782Z,61.44
2022-08-18T04:24:07.473Z,61.79
2022-08-18T04:26:37.245Z,61.35
2022-08-18T04:29:05.223Z,61.66
2022-08-18T04:31:32.283Z,61.57
2022-08-18T04:34:00.336Z,61.83
2022-08-18T04:36:28.953Z,62.05
2022-08-18T04:38:56.502Z,62.01
2022-08-18T04:41:27.353Z,62.40
2022-08-18T04:43:58.281Z,62.62
2022-08-18T04:46:26.305Z,62.44
2022-08-18T04:48:58.773Z,62.48
2022-08-18T04:52:34.024Z,62.24
2022-08-18T04:54:16.116Z,62.43
2022-08-18T04:56:42.752Z,62.65
2022-08-18T04:59:13.976Z,62.33
2022-08-18T05:01:45.659Z,62.54
2022-08-18T05:04:14.309Z,62.41
2022-08-18T05:06:42.638Z,62.66
2022-08-18T05:09:11.109Z,62.59
2022-08-18T05:11:38.958Z,62.43
2022-08-18T05:14:08.693Z,62.04
2022-08-18T05:16:48.155Z,62.32
2022-08-18T05:19:16.643Z,61.94
2022-08-18T05:21:46.001Z,61.84
2022-08-18T05:24:17.811Z,61.99
2022-08-18T05:26:44.547Z,61.56
2022-08-18T05:29:18.774Z,61.42
2022-08-18T05:31:46.336Z,61.30
2022-08-18T05:34:12.964Z,61.25
2022-08-18T05:36:59.089Z,60.96
2022-08-18T05:39:30.429Z,60.95
2022-08-18T05:42:07.403Z,60.52
2022-08-18T05:44:40.097Z,60.68
2022-08-18T05:47:29.725Z,60.35
2022-08-18T05:50:02.581Z,60.54
2022-08-18T05:52:35.386Z,60.26
2022-08-18T05:55:28.220Z,60.65
2022-08-18T05:58:10.363Z,60.17
2022-08-18T06:00:38.081Z,60.47
2022-08-18T06:03:16.233Z,60.18
2022-08-18T06:05:58.057Z,59.93
2022-08-18T06:08:33.958Z,60.06
2022-08-18T06:11:00.429Z,59.26
2022-08-18T06:13:27.072Z,58.81
2022-08-18T06:16:05.295Z,59.23
2022-08-18T06:18:41.759Z,59.53
2022-08-18T06:21:17.231Z,59.34
2022-08-18T06:24:07.985Z,59.49
2022-08-18T06:26:50.292Z,59.50
2022-08-18T06:29:25.941Z,59.67
2022-08-18T06:32:07.743Z,59.57
2022-08-18T06:35:02.028Z,59.34
2022-08-18T06:38:01.737Z,59.45
2022-08-18T06:40:28.446Z,59.52
2022-08-18T06:42:55.296Z,59.26
2022-08-18T06:45:35.950Z,59.05
2022-08-18T06:48:16.094Z,58.89
2022-08-18T06:51:00.897Z,58.34
2022-08-18T06:54:05.718Z,58.33
2022-08-18T06:56:34.982Z,58.12
2022-08-18T06:59:32.034Z,57.95
2022-08-18T07:02:24.594Z,57.86
2022-08-18T07:05:05.499Z,57.38
2022-08-18T07:07:40.738Z,57.48
2022-08-18T07:10:35.880Z,57.00
2022-08-18T07:13:16.884Z,56.88
2022-08-18T07:15:45.771Z,56.74
2022-08-18T07:18:13.856Z,56.95
2022-08-18T07:20:49.921Z,56.84
2022-08-18T07:23:34.515Z,56.57
2022-08-18T07:26:15.855Z,56.65
2022-08-18T07:28:47.213Z,56.79
2022-08-18T07:31:32.185Z,56.47
2022-08-18T07:34:15.496Z,56.58
2022-08-18T07:36:49.202Z,56.48
2022-08-18T07:39:26.237Z,56.79
2022-08-18T07:42:01.967Z,56.95
2022-08-18T07:44:45.138Z,56.94
2022-08-18T07:48:04.033Z,56.87
2022-08-18T07:50:58.426Z,57.09
2022-08-18T07:53:56.092Z,56.46
2022-08-18T07:56:23.034Z,56.22
2022-08-18T07:59:28.135Z,56.04
2022-08-18T08:02:17.656Z,55.63
2022-08-18T08:05:06.769Z,55.07
2022-08-18T08:07:40.292Z,55.00
2022-08-18T08:10:37.585Z,54.86
2022-08-18T08:13:51.259Z,55.21
2022-08-18T08:16:28.532Z,54.81
2022-08-18T08:19:58.449Z,54.55
2022-08-18T08:22:52.935Z,54.83
2022-08-18T08:25:45.753Z,54.79
2022-08-18T08:28:15.004Z,54.77
2022-08-18T08:30:55.210Z,54.46
2022-08-18T08:33:31.678Z,54.63
2022-08-18T08:36:06.699Z,54.47
2022-08-18T08:38:45.376Z,54.41
2022-08-18T08:41:26.091Z,54.28
2022-08-18T08:44:15.512Z,54.63
2022-08-18T08:46:52.748Z,53.81
2022-08-18T08:49:30.698Z,53.73
2022-08-18T08:52:09.902Z,53.90
2022-08-18T08:54:54.083Z,53.11
2022-08-18T08:57:35.911Z,53.15
2022-08-18T09:00:09.378Z,52.67
2022-08-18T09:02:54.181Z,52.45
2022-08-18T09:05:27.786Z,52.41
2022-08-18T09:08:02.943Z,52.07
2022-08-18T09:11:06.868Z,51.83
2022-08-18T09:14:05.655Z,51.09
2022-08-18T09:17:07.532Z,51.01
2022-08-18T09:19:47.486Z,50.29
2022-08-18T09:22:26.120Z,49.96
2022-08-18T09:24:54.786Z,49.89
2022-08-18T09:28:09.456Z,50.27
2022-08-18T09:30:37.256Z,50.35
2022-08-18T09:33:19.919Z,50.15
2022-08-18T09:35:54.729Z,49.97
2022-08-18T09:38:45.242Z,50.05
2022-08-18T09:41:34.120Z,50.07
2022-08-18T09:44:17.902Z,50.30
2022-08-18T09:46:48.242Z,49.68
2022-08-18T09:49:23.812Z,49.80
2022-08-18T09:51:55.470Z,49.60
2022-08-18T09:54:33.242Z,49.68
2022-08-18T09:57:19.424Z,49.42
2022-08-18T09:59:47.774Z,49.15
2022-08-18T10:02:29.088Z,49.27
2022-08-18T10:05:21.254Z,49.05
2022-08-18T10:07:56.103Z,48.73
2022-08-18T10:13:45.127Z,48.55
2022-08-18T10:16:38.281Z,48.81
2022-08-18T10:19:40.249Z,48.51
2022-08-18T10:22:09.585Z,48.76
2022-08-18T10:25:09.195Z,48.93
2022-08-18T10:27:55.080Z,48.48
2022-08-18T10:30:57.279Z,48.66
2022-08-18T10:36:58.982Z,48.44
2022-08-18T10:39:45.118Z,48.35
2022-08-18T10:42:32.615Z,48.12
2022-08-18T10:45:12.500Z,47.94
2022-08-18T10:47:42.712Z,47.20
2022-08-18T10:50:21.283Z,47.23
2022-08-18T10:53:17.050Z,47.07
2022-08-18T10:55:58.891Z,46.35
2022-08-18T10:58:37.102Z,46.08
2022-08-18T11:01:03.459Z,47.32
2022-08-18T11:04:11.643Z,46.28
2022-08-18T11:06:47.464Z,46.25
2022-08-18T11:09:25.224Z,46.01
2022-08-18T11:11:58.460Z,45.90
2022-08-18T11:15:22.303Z,46.19
2022-08-18T11:18:10.530Z,45.49
2022-08-18T11:20:39.489Z,45.31
2022-08-18T11:23:14.378Z,45.11
2022-08-18T11:25:42.675Z,44.98
2022-08-18T11:31:10.207Z,44.77
2022-08-18T11:33:41.434Z,44.76
2022-08-18T11:36:08.509Z,44.62
2022-08-18T11:38:37.907Z,44.27
2022-08-18T11:41:17.257Z,43.69
2022-08-18T11:43:47.409Z,43.67
2022-08-18T11:46:38.852Z,43.83
2022-08-18T11:49:26.553Z,42.94
2022-08-18T11:52:03.233Z,42.41
2022-08-18T11:54:39.272Z,42.27
2022-08-18T11:57:46.989Z,42.69
2022-08-18T12:00:46.905Z,42.48
2022-08-18T12:03:23.917Z,41.92
2022-08-18T12:05:56.290Z,41.27
2022-08-18T12:08:58.109Z,41.45
2022-08-18T12:11:27.672Z,41.22
2022-08-18T12:14:30.365Z,41.80
2022-08-18T12:17:01.909Z,42.73
2022-08-18T12:19:30.709Z,40.12
2022-08-18T12:22:00.041Z,40.34
2022-08-18T12:24:36.863Z,39.72
2022-08-18T12:27:20.495Z,39.22
2022-08-18T12:29:49.441Z,39.14
2022-08-18T12:32:18.199Z,38.84
2022-08-18T12:35:09.615Z,38.43
2022-08-18T12:40:25.276Z,38.64
2022-08-18T12:42:55.847Z,38.42
2022-08-18T12:45:23.439Z,38.65
2022-08-18T12:47:51.771Z,38.31
2022-08-18T12:50:19.514Z,38.05
2022-08-18T12:52:46.692Z,38.36
2022-08-18T12:55:21.413Z,37.46
2022-08-18T12:57:52.048Z,37.78
2022-08-18T13:00:21.106Z,37.24
2022-08-18T13:02:54.986Z,36.73
2022-08-18T13:05:27.946Z,36.49
2022-08-18T13:08:04.555Z,37.05
2022-08-18T13:10:42.994Z,37.05
2022-08-18T13:13:13.584Z,37.15
2022-08-18T13:15:44.327Z,36.82
2022-08-18T13:18:28.906Z,36.89
2022-08-18T13:20:57.662Z,36.74
2022-08-18T13:23:25.884Z,36.17
2022-08-18T13:25:59.401Z,36.60
2022-08-18T13:28:30.481Z,36.07
2022-08-18T13:30:57.290Z,35.75
2022-08-18T13:33:34.778Z,36.37
2022-08-18T13:36:11.947Z,36.27
2022-08-18T13:38:42.756Z,35.84
2022-08-18T13:41:15.623Z,35.43
2022-08-18T13:43:47.857Z,35.11
2022-08-18T13:46:18.595Z,35.20
2022-08-18T13:48:46.819Z,34.94
2022-08-18T13:51:20.260Z,34.83
2022-08-18T13:53:58.863Z,34.91
2022-08-18T13:56:33.231Z,34.93
2022-08-18T13:59:04.836Z,34.65
2022-08-18T14:01:51.938Z,34.96
2022-08-18T14:04:20.621Z,34.61
2022-08-18T14:06:56.258Z,34.93
2022-08-18T14:09:35.718Z,35.12
2022-08-18T14:12:21.547Z,35.74
2022-08-18T14:14:52.106Z,35.42
2022-08-18T14:17:19.259Z,35.80
2022-08-18T14:20:04.315Z,35.97
2022-08-18T14:22:50.086Z,36.22
2022-08-18T14:25:35.379Z,37.38
2022-08-18T14:28:03.917Z,36.78
2022-08-18T14:30:31.392Z,36.60
2022-08-18T14:32:59.425Z,36.63
2022-08-18T14:36:03.765Z,36.94
2022-08-18T14:38:15.116Z,37.30
2022-08-18T14:40:44.288Z,37.11
2022-08-18T14:43:14.191Z,37.57
2022-08-18T14:45:47.469Z,37.60
2022-08-18T14:48:22.265Z,37.85
2022-08-18T14:50:55.348Z,37.66
2022-08-18T14:53:27.582Z,38.25
2022-08-18T14:55:57.505Z,38.68
2022-08-18T14:58:29.249Z,38.57
2022-08-18T15:01:02.926Z,39.10
2022-08-18T15:03:36.559Z,39.36
2022-08-18T15:06:05.432Z,39.93
2022-08-18T15:08:34.366Z,40.00
2022-08-18T15:11:03.422Z,40.25
2022-08-18T15:13:30.074Z,39.92
2022-08-18T15:16:01.851Z,40.56
2022-08-18T15:18:29.286Z,40.45
2022-08-18T15:21:34.979Z,40.43
2022-08-18T15:24:20.530Z,40.92
2022-08-18T15:26:51.822Z,41.06
2022-08-18T15:29:36.848Z,41.57
2022-08-18T15:32:10.398Z,41.70
2022-08-18T15:34:47.065Z,41.54
2022-08-18T15:37:19.948Z,41.50
2022-08-18T15:39:58.461Z,41.60
2022-08-18T15:42:25.750Z,41.37
2022-08-18T15:44:54.130Z,41.21
2022-08-18T15:47:22.227Z,41.43
2022-08-18T15:49:51.625Z,41.28
2022-08-18T15:52:21.134Z,41.03
2022-08-18T15:54:50.939Z,41.14
2022-08-18T15:57:24.309Z,40.81
2022-08-18T16:00:05.652Z,40.77
2022-08-18T16:02:32.229Z,41.20
2022-08-18T16:05:09.156Z,40.93
2022-08-18T16:07:41.384Z,40.66
2022-08-18T16:10:12.717Z,40.91
2022-08-18T16:12:45.594Z,40.67
2022-08-18T16:15:21.089Z,40.58
2022-08-18T16:17:49.772Z,40.44
2022-08-18T16:20:24.389Z,40.32
2022-08-18T16:22:52.491Z,40.20
2022-08-18T16:25:19.616Z,40.06
2022-08-18T16:27:48.001Z,39.68
2022-08-18T16:30:21.910Z,39.74
2022-08-18T16:32:49.416Z,39.06
2022-08-18T16:35:18.623Z,38.76
2022-08-18T16:37:47.012Z,38.93
2022-08-18T16:40:14.781Z,38.87
2022-08-18T16:42:41.480Z,39.05
2022-08-18T16:45:08.886Z,38.79
2022-08-18T16:47:40.467Z,38.64
2022-08-18T16:50:15.207Z,39.04
2022-08-18T16:52:41.909Z,38.67
2022-08-18T16:55:10.292Z,38.93
2022-08-18T16:57:59.796Z,38.46
2022-08-18T17:00:46.723Z,38.37
2022-08-18T17:03:40.074Z,38.25
2022-08-18T17:06:10.788Z,38.20
2022-08-18T17:08:38.507Z,38.38
2022-08-18T17:11:09.791Z,37.84
2022-08-18T17:13:38.531Z,37.89
2022-08-18T17:16:05.128Z,37.48
2022-08-18T17:18:31.761Z,37.38
2022-08-18T17:21:06.369Z,37.05
2022-08-18T17:23:33.848Z,36.58
2022-08-18T17:26:05.935Z,36.67
2022-08-18T17:28:40.338Z,36.53
2022-08-18T17:31:16.244Z,36.32
2022-08-18T17:33:49.049Z,36.02
2022-08-18T17:36:21.794Z,35.83
2022-08-18T17:38:58.528Z,35.58
2022-08-18T17:41:26.122Z,35.81
2022-08-18T17:43:57.240Z,35.33
2022-08-18T17:46:29.239Z,35.15
2022-08-18T17:49:54.275Z,35.41
2022-08-18T17:52:45.744Z,35.24
2022-08-18T17:55:26.298Z,35.27
2022-08-18T17:58:34.867Z,35.60
2022-08-18T18:01:03.325Z,35.54
2022-08-18T18:03:29.745Z,35.00
2022-08-18T18:06:09.226Z,35.08
2022-08-18T18:09:00.644Z,35.38
2022-08-18T18:11:33.608Z,35.26
2022-08-18T18:14:24.228Z,35.19
2022-08-18T18:17:20.135Z,35.95
2022-08-18T18:19:54.137Z,35.55
2022-08-18T18:22:23.850Z,36.31
2022-08-18T18:25:04.433Z,36.77
2022-08-18T18:27:40.667Z,36.69
2022-08-18T18:30:19.286Z,37.02
2022-08-18T18:33:14.088Z,37.62
2022-08-18T18:35:53.191Z,37.76
2022-08-18T18:38:35.408Z,37.88
2022-08-18T18:41:05.743Z,38.15
2022-08-18T18:43:47.351Z,38.79
2022-08-18T18:46:18.855Z,38.79
2022-08-18T18:49:01.282Z,39.19
2022-08-18T18:51:50.523Z,39.39
2022-08-18T18:54:33.005Z,39.69
2022-08-18T18:57:00.568Z,39.65
2022-08-18T18:59:48.971Z,39.88
2022-08-18T19:02:34.811Z,40.25
2022-08-18T19:05:10.665Z,40.56
2022-08-18T19:07:58.305Z,40.43
2022-08-18T19:10:37.429Z,40.62
2022-08-18T19:13:32.655Z,40.81
2022-08-18T19:16:11.765Z,41.06
2022-08-18T19:19:37.429Z,41.33
2022-08-18T19:22:15.918Z,41.76
2022-08-18T19:24:56.378Z,42.08
2022-08-18T19:28:13.749Z,42.29
2022-08-18T19:30:43.966Z,42.76
2022-08-18T19:33:24.775Z,42.96
2022-08-18T19:36:07.122Z,43.44
2022-08-18T19:38:52.014Z,43.70
2022-08-18T19:41:48.422Z,43.73
2022-08-18T19:44:37.475Z,43.88
2022-08-18T19:47:08.865Z,44.16
2022-08-18T19:50:01.351Z,44.36
2022-08-18T19:53:11.117Z,45.26
2022-08-18T19:55:47.442Z,45.06
2022-08-18T19:58:32.221Z,45.27
2022-08-18T20:01:04.757Z,45.26
2022-08-18T20:04:08.948Z,45.60
2022-08-18T20:06:57.498Z,45.76
2022-08-18T20:09:48.049Z,46.20
2022-08-18T20:12:42.627Z,45.76
2022-08-18T20:15:17.102Z,46.07
2022-08-18T20:18:05.935Z,45.92
2022-08-18T20:20:38.095Z,46.84
2022-08-18T20:23:34.948Z,46.32
2022-08-18T20:26:01.490Z,45.74
2022-08-18T20:28:37.541Z,46.66
2022-08-18T20:31:12.532Z,47.09
2022-08-18T20:34:03.969Z,47.42
2022-08-18T20:36:36.647Z,47.75
2022-08-18T20:39:35.138Z,47.83
2022-08-18T20:42:03.308Z,48.08
2022-08-18T20:44:48.471Z,48.27
2022-08-18T20:47:39.750Z,48.17
2022-08-18T20:50:12.836Z,48.61
2022-08-18T20:53:16.751Z,48.44
2022-08-18T20:56:31.650Z,48.80
2022-08-18T20:59:03.907Z,49.05
2022-08-18T21:01:35.791Z,49.42
2022-08-18T21:04:03.078Z,49.41
2022-08-18T21:06:37.428Z,49.52
2022-08-18T21:09:04.569Z,49.90
2022-08-18T21:11:47.282Z,49.69
2022-08-18T21:14:29.845Z,49.69
2022-08-18T21:16:58.764Z,49.86
2022-08-18T21:19:28.257Z,50.15
2022-08-18T21:22:01.249Z,49.90
2022-08-18T21:24:38.747Z,50.35
2022-08-18T21:27:05.136Z,50.59
2022-08-18T21:29:42.234Z,50.53
2022-08-18T21:32:31.342Z,50.25
2022-08-18T21:35:05.911Z,50.59
2022-08-18T21:37:40.963Z,50.48
2022-08-18T21:40:08.089Z,50.66
2022-08-18T21:42:37.393Z,50.41
2022-08-18T21:45:04.222Z,51.32
2022-08-18T21:47:35.662Z,50.89
2022-08-18T21:50:24.384Z,50.96
2022-08-18T21:52:58.231Z,50.85
2022-08-18T21:55:41.531Z,50.93
2022-08-18T21:58:08.539Z,51.27
2022-08-18T22:00:41.413Z,51.67
2022-08-18T22:03:25.897Z,51.42
2022-08-18T22:06:21.983Z,51.24
2022-08-18T22:08:59.281Z,51.49
2022-08-18T22:12:00.847Z,51.82
2022-08-18T22:14:54.292Z,51.87
2022-08-18T22:17:32.611Z,52.01
2022-08-18T22:20:38.615Z,52.01
2022-08-18T22:23:33.061Z,52.58
2022-08-18T22:26:17.556Z,52.29
2022-08-18T22:28:50.074Z,52.61
2022-08-18T22:31:20.871Z,53.33
2022-08-18T22:33:48.238Z,53.77
2022-08-18T22:36:18.967Z,53.62
2022-08-18T22:38:46.424Z,54.33
2022-08-18T22:41:14.088Z,54.22
2022-08-18T22:43:40.518Z,54.11
2022-08-18T22:46:07.084Z,54.63
2022-08-18T22:48:33.559Z,54.77
2022-08-18T22:51:00.039Z,54.78
2022-08-18T22:53:26.539Z,54.99
2022-08-18T22:55:53.339Z,55.03
2022-08-18T22:58:22.153Z,55.22
2022-08-18T23:01:01.236Z,55.38
2022-08-18T23:03:32.117Z,55.09
2022-08-18T23:06:08.886Z,55.02
2022-08-18T23:08:38.288Z,55.18
2022-08-18T23:11:21.814Z,53.77
2022-08-18T23:13:48.773Z,55.33
2022-08-18T23:16:30.433Z,55.37
2022-08-18T23:19:01.706Z,55.57
2022-08-18T23:21:35.485Z,56.01
2022-08-18T23:24:06.618Z,55.75
2022-08-18T23:26:34.203Z,56.43
2022-08-18T23:29:03.002Z,56.10
2022-08-18T23:31:30.298Z,56.74
2022-08-18T23:33:57.370Z,56.49
2022-08-18T23:36:23.802Z,56.73
2022-08-18T23:38:50.279Z,56.74
2022-08-18T23:41:16.816Z,57.30
2022-08-18T23:43:43.262Z,57.25
2022-08-18T23:46:23.046Z,56.78
2022-08-18T23:48:51.002Z,57.06
2022-08-18T23:51:44.339Z,56.62
2022-08-18T23:54:15.364Z,56.78
2022-08-18T23:56:41.849Z,57.17
2022-08-18T23:59:08.535Z,56.91
